sensor_id;sensor_type;location;lat;lon;timestamp;P1;durP1;ratioP1;P2;durP2;ratioP2
7647;SDS011;3866;48.020;11.720;2023-04-06T00:00:38;6.57;;;5.77;;
7647;SDS011;3866;48.020;11.720;2023-04-06T00:03:05;7.23;;;5.60;;
7647;SDS011;3866;48.020;11.720;2023-04-06T00:05:33;8.00;;;6.80;;
7647;SDS011;3866;48.020;11.720;2023-04-06T00:08:00;10.07;;;6.67;;
7647;SDS011;3866;48.020;11.720;2023-04-06T00:10:27;14.10;;;6.37;;
7647;SDS011;3866;48.020;11.720;2023-04-06T00:12:54;7.10;;;6.17;;
7647;SDS011;3866;48.020;11.720;2023-04-06T00:15:22;6.97;;;6.00;;
7647;SDS011;3866;48.020;11.720;2023-04-06T00:17:49;7.03;;;6.30;;
7647;SDS011;3866;48.020;11.720;2023-04-06T00:20:16;6.90;;;6.20;;
7647;SDS011;3866;48.020;11.720;2023-04-06T00:22:45;9.60;;;6.10;;
7647;SDS011;3866;48.020;11.720;2023-04-06T00:25:12;7.03;;;5.80;;
7647;SDS011;3866;48.020;11.720;2023-04-06T00:27:40;9.50;;;6.07;;
7647;SDS011;3866;48.020;11.720;2023-04-06T00:30:08;7.40;;;6.03;;
7647;SDS011;3866;48.020;11.720;2023-04-06T00:32:35;7.23;;;6.27;;
7647;SDS011;3866;48.020;11.720;2023-04-06T00:35:02;7.63;;;6.83;;
7647;SDS011;3866;48.020;11.720;2023-04-06T00:37:30;7.57;;;6.50;;
7647;SDS011;3866;48.020;11.720;2023-04-06T00:39:59;8.73;;;7.23;;
7647;SDS011;3866;48.020;11.720;2023-04-06T00:42:26;14.33;;;7.70;;
7647;SDS011;3866;48.020;11.720;2023-04-06T00:44:53;9.87;;;6.60;;
7647;SDS011;3866;48.020;11.720;2023-04-06T00:47:21;8.53;;;6.63;;
7647;SDS011;3866;48.020;11.720;2023-04-06T00:49:50;9.13;;;7.43;;
7647;SDS011;3866;48.020;11.720;2023-04-06T00:52:17;12.07;;;7.60;;
7647;SDS011;3866;48.020;11.720;2023-04-06T00:54:44;8.77;;;6.83;;
7647;SDS011;3866;48.020;11.720;2023-04-06T00:57:13;9.13;;;7.07;;
7647;SDS011;3866;48.020;11.720;2023-04-06T00:59:40;8.57;;;6.57;;
7647;SDS011;3866;48.020;11.720;2023-04-06T01:02:07;8.87;;;7.97;;
7647;SDS011;3866;48.020;11.720;2023-04-06T01:04:35;12.07;;;7.43;;
7647;SDS011;3866;48.020;11.720;2023-04-06T01:07:02;9.27;;;8.27;;
7647;SDS011;3866;48.020;11.720;2023-04-06T01:09:29;8.63;;;7.83;;
7647;SDS011;3866;48.020;11.720;2023-04-06T01:11:56;9.17;;;8.17;;
7647;SDS011;3866;48.020;11.720;2023-04-06T01:14:25;9.70;;;7.20;;
7647;SDS011;3866;48.020;11.720;2023-04-06T01:16:52;8.73;;;7.57;;
7647;SDS011;3866;48.020;11.720;2023-04-06T01:19:19;8.07;;;6.63;;
7647;SDS011;3866;48.020;11.720;2023-04-06T01:21:48;8.20;;;6.60;;
7647;SDS011;3866;48.020;11.720;2023-04-06T01:24:19;10.90;;;7.83;;
7647;SDS011;3866;48.020;11.720;2023-04-06T01:26:47;9.57;;;7.97;;
7647;SDS011;3866;48.020;11.720;2023-04-06T01:29:14;9.30;;;7.43;;
7647;SDS011;3866;48.020;11.720;2023-04-06T01:31:41;8.77;;;7.30;;
7647;SDS011;3866;48.020;11.720;2023-04-06T01:34:11;8.87;;;6.90;;
7647;SDS011;3866;48.020;11.720;2023-04-06T01:36:39;10.73;;;7.23;;
7647;SDS011;3866;48.020;11.720;2023-04-06T01:39:06;10.87;;;6.90;;
7647;SDS011;3866;48.020;11.720;2023-04-06T01:41:34;11.33;;;7.80;;
7647;SDS011;3866;48.020;11.720;2023-04-06T01:44:01;10.73;;;6.73;;
7647;SDS011;3866;48.020;11.720;2023-04-06T01:46:28;9.03;;;7.20;;
7647;SDS011;3866;48.020;11.720;2023-04-06T01:48:55;10.90;;;7.20;;
7647;SDS011;3866;48.020;11.720;2023-04-06T01:51:22;8.90;;;7.03;;
7647;SDS011;3866;48.020;11.720;2023-04-06T01:53:50;9.90;;;7.07;;
7647;SDS011;3866;48.020;11.720;2023-04-06T01:56:18;8.57;;;6.83;;
7647;SDS011;3866;48.020;11.720;2023-04-06T01:58:46;14.87;;;13.57;;
7647;SDS011;3866;48.020;11.720;2023-04-06T02:01:13;11.03;;;9.97;;
7647;SDS011;3866;48.020;11.720;2023-04-06T02:03:40;9.33;;;7.73;;
7647;SDS011;3866;48.020;11.720;2023-04-06T02:06:07;7.77;;;6.90;;
7647;SDS011;3866;48.020;11.720;2023-04-06T02:08:34;10.73;;;6.93;;
7647;SDS011;3866;48.020;11.720;2023-04-06T02:11:01;7.67;;;6.77;;
7647;SDS011;3866;48.020;11.720;2023-04-06T02:13:28;8.77;;;6.93;;
7647;SDS011;3866;48.020;11.720;2023-04-06T02:15:56;7.87;;;7.03;;
7647;SDS011;3866;48.020;11.720;2023-04-06T02:18:23;7.47;;;6.30;;
7647;SDS011;3866;48.020;11.720;2023-04-06T02:20:50;10.80;;;8.43;;
7647;SDS011;3866;48.020;11.720;2023-04-06T02:23:17;9.77;;;7.03;;
7647;SDS011;3866;48.020;11.720;2023-04-06T02:25:44;9.47;;;7.60;;
7647;SDS011;3866;48.020;11.720;2023-04-06T02:28:11;12.33;;;8.83;;
7647;SDS011;3866;48.020;11.720;2023-04-06T02:30:38;10.67;;;8.53;;
7647;SDS011;3866;48.020;11.720;2023-04-06T02:33:07;9.57;;;8.13;;
7647;SDS011;3866;48.020;11.720;2023-04-06T02:35:34;16.53;;;8.87;;
7647;SDS011;3866;48.020;11.720;2023-04-06T02:38:01;10.07;;;7.50;;
7647;SDS011;3866;48.020;11.720;2023-04-06T02:40:28;10.87;;;8.27;;
7647;SDS011;3866;48.020;11.720;2023-04-06T02:42:55;14.67;;;8.90;;
7647;SDS011;3866;48.020;11.720;2023-04-06T02:45:22;11.73;;;8.30;;
7647;SDS011;3866;48.020;11.720;2023-04-06T02:47:49;13.87;;;8.33;;
7647;SDS011;3866;48.020;11.720;2023-04-06T02:50:17;15.47;;;10.13;;
7647;SDS011;3866;48.020;11.720;2023-04-06T02:52:44;10.37;;;8.47;;
7647;SDS011;3866;48.020;11.720;2023-04-06T02:55:11;11.90;;;8.30;;
7647;SDS011;3866;48.020;11.720;2023-04-06T02:57:38;11.47;;;7.87;;
7647;SDS011;3866;48.020;11.720;2023-04-06T03:00:06;9.53;;;8.50;;
7647;SDS011;3866;48.020;11.720;2023-04-06T03:02:33;10.07;;;8.60;;
7647;SDS011;3866;48.020;11.720;2023-04-06T03:05:00;10.60;;;9.30;;
7647;SDS011;3866;48.020;11.720;2023-04-06T03:07:29;9.93;;;8.03;;
7647;SDS011;3866;48.020;11.720;2023-04-06T03:09:56;10.03;;;8.43;;
7647;SDS011;3866;48.020;11.720;2023-04-06T03:12:23;9.93;;;7.27;;
7647;SDS011;3866;48.020;11.720;2023-04-06T03:14:50;8.43;;;7.10;;
7647;SDS011;3866;48.020;11.720;2023-04-06T03:17:17;10.57;;;7.67;;
7647;SDS011;3866;48.020;11.720;2023-04-06T03:19:44;8.27;;;7.33;;
7647;SDS011;3866;48.020;11.720;2023-04-06T03:22:11;11.43;;;7.63;;
7647;SDS011;3866;48.020;11.720;2023-04-06T03:24:39;11.40;;;7.53;;
7647;SDS011;3866;48.020;11.720;2023-04-06T03:27:06;10.33;;;8.20;;
7647;SDS011;3866;48.020;11.720;2023-04-06T03:29:33;11.07;;;7.73;;
7647;SDS011;3866;48.020;11.720;2023-04-06T03:32:00;8.50;;;7.33;;
7647;SDS011;3866;48.020;11.720;2023-04-06T03:34:27;13.17;;;7.57;;
7647;SDS011;3866;48.020;11.720;2023-04-06T03:36:54;10.80;;;8.07;;
7647;SDS011;3866;48.020;11.720;2023-04-06T03:39:21;10.83;;;8.17;;
7647;SDS011;3866;48.020;11.720;2023-04-06T03:41:50;10.60;;;8.50;;
7647;SDS011;3866;48.020;11.720;2023-04-06T03:44:17;10.80;;;8.93;;
7647;SDS011;3866;48.020;11.720;2023-04-06T03:46:44;9.10;;;7.70;;
7647;SDS011;3866;48.020;11.720;2023-04-06T03:49:11;8.03;;;7.23;;
7647;SDS011;3866;48.020;11.720;2023-04-06T03:51:38;8.60;;;7.67;;
7647;SDS011;3866;48.020;11.720;2023-04-06T03:54:05;9.17;;;7.73;;
7647;SDS011;3866;48.020;11.720;2023-04-06T03:56:32;8.03;;;7.13;;
7647;SDS011;3866;48.020;11.720;2023-04-06T03:59:00;10.77;;;8.30;;
7647;SDS011;3866;48.020;11.720;2023-04-06T04:01:27;9.93;;;8.23;;
7647;SDS011;3866;48.020;11.720;2023-04-06T04:03:54;8.67;;;7.70;;
7647;SDS011;3866;48.020;11.720;2023-04-06T04:06:21;10.17;;;9.03;;
7647;SDS011;3866;48.020;11.720;2023-04-06T04:08:48;9.03;;;8.17;;
7647;SDS011;3866;48.020;11.720;2023-04-06T04:11:15;8.73;;;7.93;;
7647;SDS011;3866;48.020;11.720;2023-04-06T04:13:42;10.40;;;8.37;;
7647;SDS011;3866;48.020;11.720;2023-04-06T04:16:11;13.17;;;7.77;;
7647;SDS011;3866;48.020;11.720;2023-04-06T04:18:38;10.23;;;7.53;;
7647;SDS011;3866;48.020;11.720;2023-04-06T04:21:05;10.77;;;7.93;;
7647;SDS011;3866;48.020;11.720;2023-04-06T04:23:32;8.73;;;7.40;;
7647;SDS011;3866;48.020;11.720;2023-04-06T04:25:59;9.77;;;7.70;;
7647;SDS011;3866;48.020;11.720;2023-04-06T04:28:26;16.10;;;8.27;;
7647;SDS011;3866;48.020;11.720;2023-04-06T04:30:53;11.47;;;9.17;;
7647;SDS011;3866;48.020;11.720;2023-04-06T04:33:22;11.97;;;8.13;;
7647;SDS011;3866;48.020;11.720;2023-04-06T04:35:49;10.63;;;8.47;;
7647;SDS011;3866;48.020;11.720;2023-04-06T04:38:16;9.70;;;8.07;;
7647;SDS011;3866;48.020;11.720;2023-04-06T04:40:44;10.87;;;8.67;;
7647;SDS011;3866;48.020;11.720;2023-04-06T04:43:11;10.70;;;8.83;;
7647;SDS011;3866;48.020;11.720;2023-04-06T04:45:38;12.30;;;8.00;;
7647;SDS011;3866;48.020;11.720;2023-04-06T04:48:05;10.83;;;8.47;;
7647;SDS011;3866;48.020;11.720;2023-04-06T04:50:35;9.73;;;8.43;;
7647;SDS011;3866;48.020;11.720;2023-04-06T04:53:02;8.43;;;7.53;;
7647;SDS011;3866;48.020;11.720;2023-04-06T04:55:31;9.67;;;8.00;;
7647;SDS011;3866;48.020;11.720;2023-04-06T04:57:58;8.07;;;7.23;;
7647;SDS011;3866;48.020;11.720;2023-04-06T05:00:25;12.70;;;7.97;;
7647;SDS011;3866;48.020;11.720;2023-04-06T05:02:52;9.90;;;7.47;;
7647;SDS011;3866;48.020;11.720;2023-04-06T05:05:19;11.90;;;8.17;;
7647;SDS011;3866;48.020;11.720;2023-04-06T05:07:47;12.60;;;8.13;;
7647;SDS011;3866;48.020;11.720;2023-04-06T05:10:14;9.53;;;7.50;;
7647;SDS011;3866;48.020;11.720;2023-04-06T05:12:41;8.93;;;7.87;;
7647;SDS011;3866;48.020;11.720;2023-04-06T05:15:09;9.23;;;7.40;;
7647;SDS011;3866;48.020;11.720;2023-04-06T05:17:36;23.57;;;14.67;;
7647;SDS011;3866;48.020;11.720;2023-04-06T05:20:04;11.73;;;9.10;;
7647;SDS011;3866;48.020;11.720;2023-04-06T05:22:32;12.50;;;7.07;;
7647;SDS011;3866;48.020;11.720;2023-04-06T05:25:00;9.17;;;6.87;;
7647;SDS011;3866;48.020;11.720;2023-04-06T05:27:28;12.50;;;7.50;;
7647;SDS011;3866;48.020;11.720;2023-04-06T05:29:55;10.77;;;7.43;;
7647;SDS011;3866;48.020;11.720;2023-04-06T05:32:22;9.13;;;7.33;;
7647;SDS011;3866;48.020;11.720;2023-04-06T05:34:49;9.87;;;7.37;;
7647;SDS011;3866;48.020;11.720;2023-04-06T05:37:17;9.30;;;7.20;;
7647;SDS011;3866;48.020;11.720;2023-04-06T05:39:44;12.10;;;7.27;;
7647;SDS011;3866;48.020;11.720;2023-04-06T05:42:12;7.30;;;6.43;;
7647;SDS011;3866;48.020;11.720;2023-04-06T05:44:40;9.30;;;6.83;;
7647;SDS011;3866;48.020;11.720;2023-04-06T05:47:07;8.70;;;6.53;;
7647;SDS011;3866;48.020;11.720;2023-04-06T05:49:34;9.20;;;6.80;;
7647;SDS011;3866;48.020;11.720;2023-04-06T05:52:01;12.57;;;7.40;;
7647;SDS011;3866;48.020;11.720;2023-04-06T05:54:29;9.20;;;6.93;;
7647;SDS011;3866;48.020;11.720;2023-04-06T05:56:56;7.70;;;6.20;;
7647;SDS011;3866;48.020;11.720;2023-04-06T05:59:24;7.23;;;5.87;;
7647;SDS011;3866;48.020;11.720;2023-04-06T06:01:51;7.23;;;5.57;;
7647;SDS011;3866;48.020;11.720;2023-04-06T06:04:18;10.30;;;6.90;;
7647;SDS011;3866;48.020;11.720;2023-04-06T06:06:45;8.43;;;5.90;;
7647;SDS011;3866;48.020;11.720;2023-04-06T06:09:12;6.00;;;5.40;;
7647;SDS011;3866;48.020;11.720;2023-04-06T06:11:39;7.00;;;5.53;;
7647;SDS011;3866;48.020;11.720;2023-04-06T06:14:07;7.17;;;5.77;;
7647;SDS011;3866;48.020;11.720;2023-04-06T06:16:35;7.70;;;5.07;;
7647;SDS011;3866;48.020;11.720;2023-04-06T06:19:02;8.83;;;7.20;;
7647;SDS011;3866;48.020;11.720;2023-04-06T06:21:29;6.13;;;5.53;;
7647;SDS011;3866;48.020;11.720;2023-04-06T06:23:56;10.40;;;5.60;;
7647;SDS011;3866;48.020;11.720;2023-04-06T06:26:24;7.03;;;4.70;;
7647;SDS011;3866;48.020;11.720;2023-04-06T06:28:51;4.97;;;4.30;;
7647;SDS011;3866;48.020;11.720;2023-04-06T06:31:18;5.43;;;4.83;;
7647;SDS011;3866;48.020;11.720;2023-04-06T06:33:47;5.63;;;4.50;;
7647;SDS011;3866;48.020;11.720;2023-04-06T06:36:15;6.27;;;4.60;;
7647;SDS011;3866;48.020;11.720;2023-04-06T06:38:42;5.77;;;4.70;;
7647;SDS011;3866;48.020;11.720;2023-04-06T06:41:13;5.33;;;4.27;;
7647;SDS011;3866;48.020;11.720;2023-04-06T06:43:40;5.33;;;4.83;;
7647;SDS011;3866;48.020;11.720;2023-04-06T06:46:07;6.60;;;5.00;;
7647;SDS011;3866;48.020;11.720;2023-04-06T06:48:34;6.33;;;4.73;;
7647;SDS011;3866;48.020;11.720;2023-04-06T06:51:02;4.87;;;4.40;;
7647;SDS011;3866;48.020;11.720;2023-04-06T06:53:29;7.70;;;5.13;;
7647;SDS011;3866;48.020;11.720;2023-04-06T06:55:56;8.13;;;5.27;;
7647;SDS011;3866;48.020;11.720;2023-04-06T06:58:23;6.33;;;5.13;;
7647;SDS011;3866;48.020;11.720;2023-04-06T07:00:50;9.13;;;5.60;;
7647;SDS011;3866;48.020;11.720;2023-04-06T07:03:21;8.47;;;5.13;;
7647;SDS011;3866;48.020;11.720;2023-04-06T07:05:49;7.63;;;4.77;;
7647;SDS011;3866;48.020;11.720;2023-04-06T07:08:23;8.63;;;5.13;;
7647;SDS011;3866;48.020;11.720;2023-04-06T07:10:51;7.57;;;5.57;;
7647;SDS011;3866;48.020;11.720;2023-04-06T07:13:21;6.50;;;5.20;;
7647;SDS011;3866;48.020;11.720;2023-04-06T07:15:48;5.33;;;4.60;;
7647;SDS011;3866;48.020;11.720;2023-04-06T07:18:16;5.33;;;4.83;;
7647;SDS011;3866;48.020;11.720;2023-04-06T07:20:43;5.90;;;5.13;;
7647;SDS011;3866;48.020;11.720;2023-04-06T07:23:10;5.73;;;5.20;;
7647;SDS011;3866;48.020;11.720;2023-04-06T07:25:39;8.30;;;6.20;;
7647;SDS011;3866;48.020;11.720;2023-04-06T07:28:06;8.50;;;6.03;;
7647;SDS011;3866;48.020;11.720;2023-04-06T07:30:33;8.70;;;5.70;;
7647;SDS011;3866;48.020;11.720;2023-04-06T07:33:00;6.43;;;5.27;;
7647;SDS011;3866;48.020;11.720;2023-04-06T07:35:27;10.47;;;7.40;;
7647;SDS011;3866;48.020;11.720;2023-04-06T07:37:55;6.90;;;4.90;;
7647;SDS011;3866;48.020;11.720;2023-04-06T07:40:22;6.57;;;5.87;;
7647;SDS011;3866;48.020;11.720;2023-04-06T07:42:52;5.40;;;4.90;;
7647;SDS011;3866;48.020;11.720;2023-04-06T07:45:19;6.00;;;5.40;;
7647;SDS011;3866;48.020;11.720;2023-04-06T07:47:47;8.00;;;4.93;;
7647;SDS011;3866;48.020;11.720;2023-04-06T07:50:15;8.23;;;5.10;;
7647;SDS011;3866;48.020;11.720;2023-04-06T07:52:42;7.03;;;5.03;;
7647;SDS011;3866;48.020;11.720;2023-04-06T07:55:09;8.83;;;6.13;;
7647;SDS011;3866;48.020;11.720;2023-04-06T07:57:36;7.03;;;5.87;;
7647;SDS011;3866;48.020;11.720;2023-04-06T08:00:05;8.40;;;6.43;;
7647;SDS011;3866;48.020;11.720;2023-04-06T08:02:34;6.67;;;5.70;;
7647;SDS011;3866;48.020;11.720;2023-04-06T08:05:01;6.10;;;5.60;;
7647;SDS011;3866;48.020;11.720;2023-04-06T08:07:28;6.67;;;6.00;;
7647;SDS011;3866;48.020;11.720;2023-04-06T08:09:55;6.73;;;6.03;;
7647;SDS011;3866;48.020;11.720;2023-04-06T08:12:22;7.73;;;5.67;;
7647;SDS011;3866;48.020;11.720;2023-04-06T08:14:49;6.67;;;5.77;;
7647;SDS011;3866;48.020;11.720;2023-04-06T08:17:18;7.57;;;6.27;;
7647;SDS011;3866;48.020;11.720;2023-04-06T08:19:45;6.77;;;6.07;;
7647;SDS011;3866;48.020;11.720;2023-04-06T08:22:12;6.87;;;6.27;;
7647;SDS011;3866;48.020;11.720;2023-04-06T08:24:39;7.87;;;6.83;;
7647;SDS011;3866;48.020;11.720;2023-04-06T08:27:06;8.50;;;7.33;;
7647;SDS011;3866;48.020;11.720;2023-04-06T08:29:33;8.33;;;6.90;;
7647;SDS011;3866;48.020;11.720;2023-04-06T08:32:00;8.13;;;7.23;;
7647;SDS011;3866;48.020;11.720;2023-04-06T08:34:31;7.87;;;6.57;;
7647;SDS011;3866;48.020;11.720;2023-04-06T08:36:58;13.67;;;7.67;;
7647;SDS011;3866;48.020;11.720;2023-04-06T08:39:25;7.33;;;6.67;;
7647;SDS011;3866;48.020;11.720;2023-04-06T08:41:52;9.60;;;7.73;;
7647;SDS011;3866;48.020;11.720;2023-04-06T08:44:22;7.27;;;6.57;;
7647;SDS011;3866;48.020;11.720;2023-04-06T08:46:49;7.77;;;7.00;;
7647;SDS011;3866;48.020;11.720;2023-04-06T08:49:17;7.93;;;7.13;;
7647;SDS011;3866;48.020;11.720;2023-04-06T08:51:46;9.00;;;6.90;;
7647;SDS011;3866;48.020;11.720;2023-04-06T08:54:13;8.87;;;7.27;;
7647;SDS011;3866;48.020;11.720;2023-04-06T08:56:40;12.63;;;7.37;;
7647;SDS011;3866;48.020;11.720;2023-04-06T08:59:08;8.43;;;7.10;;
7647;SDS011;3866;48.020;11.720;2023-04-06T09:01:37;7.07;;;6.37;;
7647;SDS011;3866;48.020;11.720;2023-04-06T09:04:07;6.97;;;6.27;;
7647;SDS011;3866;48.020;11.720;2023-04-06T09:06:35;8.33;;;7.47;;
7647;SDS011;3866;48.020;11.720;2023-04-06T09:09:04;7.53;;;6.80;;
7647;SDS011;3866;48.020;11.720;2023-04-06T09:11:41;9.77;;;6.63;;
7647;SDS011;3866;48.020;11.720;2023-04-06T09:14:11;6.97;;;6.37;;
7647;SDS011;3866;48.020;11.720;2023-04-06T09:16:39;7.00;;;6.30;;
7647;SDS011;3866;48.020;11.720;2023-04-06T09:19:07;8.80;;;6.40;;
7647;SDS011;3866;48.020;11.720;2023-04-06T09:21:34;7.47;;;6.70;;
7647;SDS011;3866;48.020;11.720;2023-04-06T09:24:02;7.60;;;6.73;;
7647;SDS011;3866;48.020;11.720;2023-04-06T09:26:31;8.30;;;7.07;;
7647;SDS011;3866;48.020;11.720;2023-04-06T09:28:59;11.80;;;7.43;;
7647;SDS011;3866;48.020;11.720;2023-04-06T09:31:27;8.17;;;7.30;;
7647;SDS011;3866;48.020;11.720;2023-04-06T09:33:55;12.80;;;8.27;;
7647;SDS011;3866;48.020;11.720;2023-04-06T09:36:29;9.83;;;7.30;;
7647;SDS011;3866;48.020;11.720;2023-04-06T09:38:58;8.27;;;7.47;;
7647;SDS011;3866;48.020;11.720;2023-04-06T09:41:28;8.70;;;7.80;;
7647;SDS011;3866;48.020;11.720;2023-04-06T09:44:02;9.03;;;7.37;;
7647;SDS011;3866;48.020;11.720;2023-04-06T09:46:31;8.10;;;7.30;;
7647;SDS011;3866;48.020;11.720;2023-04-06T09:49:00;7.90;;;7.00;;
7647;SDS011;3866;48.020;11.720;2023-04-06T09:51:28;7.70;;;7.00;;
7647;SDS011;3866;48.020;11.720;2023-04-06T09:53:57;9.73;;;8.60;;
7647;SDS011;3866;48.020;11.720;2023-04-06T09:56:28;8.13;;;7.23;;
7647;SDS011;3866;48.020;11.720;2023-04-06T09:59:01;7.80;;;7.00;;
7647;SDS011;3866;48.020;11.720;2023-04-06T10:01:32;9.47;;;7.63;;
7647;SDS011;3866;48.020;11.720;2023-04-06T10:04:03;8.20;;;7.13;;
7647;SDS011;3866;48.020;11.720;2023-04-06T10:06:37;9.17;;;7.60;;
7647;SDS011;3866;48.020;11.720;2023-04-06T10:09:05;8.63;;;7.17;;
7647;SDS011;3866;48.020;11.720;2023-04-06T10:11:35;9.27;;;7.80;;
7647;SDS011;3866;48.020;11.720;2023-04-06T10:14:03;8.83;;;7.80;;
7647;SDS011;3866;48.020;11.720;2023-04-06T10:16:30;11.03;;;8.10;;
7647;SDS011;3866;48.020;11.720;2023-04-06T10:19:01;8.97;;;8.07;;
7647;SDS011;3866;48.020;11.720;2023-04-06T10:21:33;10.70;;;7.73;;
7647;SDS011;3866;48.020;11.720;2023-04-06T10:24:06;9.10;;;8.20;;
7647;SDS011;3866;48.020;11.720;2023-04-06T10:26:37;9.33;;;7.53;;
7647;SDS011;3866;48.020;11.720;2023-04-06T10:29:05;9.87;;;7.43;;
7647;SDS011;3866;48.020;11.720;2023-04-06T10:31:32;9.37;;;7.50;;
7647;SDS011;3866;48.020;11.720;2023-04-06T10:33:59;10.47;;;8.80;;
7647;SDS011;3866;48.020;11.720;2023-04-06T10:36:28;10.80;;;7.30;;
7647;SDS011;3866;48.020;11.720;2023-04-06T10:38:59;9.00;;;7.27;;
7647;SDS011;3866;48.020;11.720;2023-04-06T10:41:35;11.83;;;7.60;;
7647;SDS011;3866;48.020;11.720;2023-04-06T10:44:07;9.37;;;7.17;;
7647;SDS011;3866;48.020;11.720;2023-04-06T10:46:34;7.47;;;6.77;;
7647;SDS011;3866;48.020;11.720;2023-04-06T10:49:09;8.73;;;7.03;;
7647;SDS011;3866;48.020;11.720;2023-04-06T10:51:37;20.97;;;14.73;;
7647;SDS011;3866;48.020;11.720;2023-04-06T10:54:05;9.20;;;7.40;;
7647;SDS011;3866;48.020;11.720;2023-04-06T10:56:33;8.33;;;7.13;;
7647;SDS011;3866;48.020;11.720;2023-04-06T10:59:05;8.23;;;6.63;;
7647;SDS011;3866;48.020;11.720;2023-04-06T11:01:33;8.37;;;7.10;;
7647;SDS011;3866;48.020;11.720;2023-04-06T11:04:00;9.33;;;7.03;;
7647;SDS011;3866;48.020;11.720;2023-04-06T11:06:29;9.73;;;7.50;;
7647;SDS011;3866;48.020;11.720;2023-04-06T11:08:57;7.83;;;7.03;;
7647;SDS011;3866;48.020;11.720;2023-04-06T11:11:25;8.60;;;7.33;;
7647;SDS011;3866;48.020;11.720;2023-04-06T11:13:54;8.80;;;7.13;;
7647;SDS011;3866;48.020;11.720;2023-04-06T11:16:22;7.30;;;6.63;;
7647;SDS011;3866;48.020;11.720;2023-04-06T11:18:51;8.93;;;7.10;;
7647;SDS011;3866;48.020;11.720;2023-04-06T11:21:20;7.80;;;6.97;;
7647;SDS011;3866;48.020;11.720;2023-04-06T11:24:03;16.83;;;14.03;;
7647;SDS011;3866;48.020;11.720;2023-04-06T11:26:38;7.70;;;6.47;;
7647;SDS011;3866;48.020;11.720;2023-04-06T11:29:07;9.83;;;6.40;;
7647;SDS011;3866;48.020;11.720;2023-04-06T11:31:38;9.50;;;6.97;;
7647;SDS011;3866;48.020;11.720;2023-04-06T11:34:10;8.10;;;7.30;;
7647;SDS011;3866;48.020;11.720;2023-04-06T11:36:39;8.23;;;7.07;;
7647;SDS011;3866;48.020;11.720;2023-04-06T11:39:08;7.70;;;6.90;;
7647;SDS011;3866;48.020;11.720;2023-04-06T11:41:35;9.47;;;6.80;;
7647;SDS011;3866;48.020;11.720;2023-04-06T11:44:03;7.23;;;6.33;;
7647;SDS011;3866;48.020;11.720;2023-04-06T11:46:32;6.63;;;5.97;;
7647;SDS011;3866;48.020;11.720;2023-04-06T11:49:00;7.43;;;6.13;;
7647;SDS011;3866;48.020;11.720;2023-04-06T11:51:28;6.00;;;5.47;;
7647;SDS011;3866;48.020;11.720;2023-04-06T11:53:55;7.53;;;5.80;;
7647;SDS011;3866;48.020;11.720;2023-04-06T11:56:22;9.23;;;6.43;;
7647;SDS011;3866;48.020;11.720;2023-04-06T11:58:51;6.43;;;5.83;;
7647;SDS011;3866;48.020;11.720;2023-04-06T12:01:18;9.23;;;7.10;;
7647;SDS011;3866;48.020;11.720;2023-04-06T12:03:46;7.73;;;7.03;;
7647;SDS011;3866;48.020;11.720;2023-04-06T12:06:13;7.70;;;6.97;;
7647;SDS011;3866;48.020;11.720;2023-04-06T12:08:40;7.10;;;6.50;;
7647;SDS011;3866;48.020;11.720;2023-04-06T12:11:07;8.23;;;7.50;;
7647;SDS011;3866;48.020;11.720;2023-04-06T12:13:35;7.40;;;6.70;;
7647;SDS011;3866;48.020;11.720;2023-04-06T12:16:05;8.23;;;7.43;;
7647;SDS011;3866;48.020;11.720;2023-04-06T12:18:32;7.70;;;6.90;;
7647;SDS011;3866;48.020;11.720;2023-04-06T12:21:01;8.43;;;7.63;;
7647;SDS011;3866;48.020;11.720;2023-04-06T12:23:28;8.00;;;7.20;;
7647;SDS011;3866;48.020;11.720;2023-04-06T12:25:55;8.07;;;7.27;;
7647;SDS011;3866;48.020;11.720;2023-04-06T12:28:22;6.90;;;6.30;;
7647;SDS011;3866;48.020;11.720;2023-04-06T12:30:52;7.77;;;6.97;;
7647;SDS011;3866;48.020;11.720;2023-04-06T12:33:20;6.37;;;5.77;;
7647;SDS011;3866;48.020;11.720;2023-04-06T12:35:47;6.57;;;5.97;;
7647;SDS011;3866;48.020;11.720;2023-04-06T12:38:15;8.97;;;7.10;;
7647;SDS011;3866;48.020;11.720;2023-04-06T12:40:42;7.37;;;6.57;;
7647;SDS011;3866;48.020;11.720;2023-04-06T12:43:09;7.33;;;6.57;;
7647;SDS011;3866;48.020;11.720;2023-04-06T12:45:38;8.80;;;6.47;;
7647;SDS011;3866;48.020;11.720;2023-04-06T12:48:05;10.37;;;5.97;;
7647;SDS011;3866;48.020;11.720;2023-04-06T12:50:32;8.23;;;5.70;;
7647;SDS011;3866;48.020;11.720;2023-04-06T12:52:59;5.53;;;4.80;;
7647;SDS011;3866;48.020;11.720;2023-04-06T12:55:30;6.20;;;4.40;;
7647;SDS011;3866;48.020;11.720;2023-04-06T12:57:59;5.40;;;4.90;;
7647;SDS011;3866;48.020;11.720;2023-04-06T13:00:26;5.27;;;4.83;;
7647;SDS011;3866;48.020;11.720;2023-04-06T13:02:53;5.60;;;5.10;;
7647;SDS011;3866;48.020;11.720;2023-04-06T13:05:20;5.60;;;5.10;;
7647;SDS011;3866;48.020;11.720;2023-04-06T13:07:47;6.20;;;5.60;;
7647;SDS011;3866;48.020;11.720;2023-04-06T13:10:14;6.20;;;5.60;;
7647;SDS011;3866;48.020;11.720;2023-04-06T13:12:43;6.13;;;5.43;;
7647;SDS011;3866;48.020;11.720;2023-04-06T13:15:10;6.37;;;5.10;;
7647;SDS011;3866;48.020;11.720;2023-04-06T13:17:37;5.77;;;4.73;;
7647;SDS011;3866;48.020;11.720;2023-04-06T13:20:05;7.17;;;5.53;;
7647;SDS011;3866;48.020;11.720;2023-04-06T13:22:32;5.63;;;5.10;;
7647;SDS011;3866;48.020;11.720;2023-04-06T13:24:59;5.10;;;4.60;;
7647;SDS011;3866;48.020;11.720;2023-04-06T13:27:26;5.97;;;4.73;;
7647;SDS011;3866;48.020;11.720;2023-04-06T13:29:55;6.63;;;5.07;;
7647;SDS011;3866;48.020;11.720;2023-04-06T13:32:22;6.33;;;5.17;;
7647;SDS011;3866;48.020;11.720;2023-04-06T13:34:49;6.27;;;5.67;;
7647;SDS011;3866;48.020;11.720;2023-04-06T13:37:18;6.43;;;5.60;;
7647;SDS011;3866;48.020;11.720;2023-04-06T13:39:45;6.07;;;5.00;;
7647;SDS011;3866;48.020;11.720;2023-04-06T13:42:12;8.30;;;5.33;;
7647;SDS011;3866;48.020;11.720;2023-04-06T13:44:39;5.53;;;5.03;;
7647;SDS011;3866;48.020;11.720;2023-04-06T13:47:07;6.00;;;5.33;;
7647;SDS011;3866;48.020;11.720;2023-04-06T13:49:34;5.80;;;5.20;;
7647;SDS011;3866;48.020;11.720;2023-04-06T13:52:02;6.20;;;5.30;;
7647;SDS011;3866;48.020;11.720;2023-04-06T13:54:29;6.20;;;5.17;;
7647;SDS011;3866;48.020;11.720;2023-04-06T13:56:56;5.47;;;4.93;;
7647;SDS011;3866;48.020;11.720;2023-04-06T13:59:23;4.97;;;4.50;;
7647;SDS011;3866;48.020;11.720;2023-04-06T14:01:49;6.73;;;5.50;;
7647;SDS011;3866;48.020;11.720;2023-04-06T14:04:18;5.03;;;4.53;;
7647;SDS011;3866;48.020;11.720;2023-04-06T14:06:45;6.63;;;5.90;;
7647;SDS011;3866;48.020;11.720;2023-04-06T14:09:12;7.30;;;5.70;;
7647;SDS011;3866;48.020;11.720;2023-04-06T14:11:39;5.73;;;5.23;;
7647;SDS011;3866;48.020;11.720;2023-04-06T14:14:06;6.37;;;4.63;;
7647;SDS011;3866;48.020;11.720;2023-04-06T14:16:33;4.97;;;4.47;;
7647;SDS011;3866;48.020;11.720;2023-04-06T14:19:00;5.47;;;4.87;;
7647;SDS011;3866;48.020;11.720;2023-04-06T14:21:29;5.30;;;4.80;;
7647;SDS011;3866;48.020;11.720;2023-04-06T14:23:56;7.17;;;4.80;;
7647;SDS011;3866;48.020;11.720;2023-04-06T14:26:23;6.97;;;5.13;;
7647;SDS011;3866;48.020;11.720;2023-04-06T14:28:50;5.67;;;4.90;;
7647;SDS011;3866;48.020;11.720;2023-04-06T14:31:17;5.90;;;5.40;;
7647;SDS011;3866;48.020;11.720;2023-04-06T14:33:44;5.70;;;5.10;;
7647;SDS011;3866;48.020;11.720;2023-04-06T14:36:11;5.50;;;4.90;;
7647;SDS011;3866;48.020;11.720;2023-04-06T14:38:39;5.87;;;4.90;;
7647;SDS011;3866;48.020;11.720;2023-04-06T14:41:08;5.60;;;5.03;;
7647;SDS011;3866;48.020;11.720;2023-04-06T14:43:41;5.90;;;5.03;;
7647;SDS011;3866;48.020;11.720;2023-04-06T14:46:08;5.83;;;5.30;;
7647;SDS011;3866;48.020;11.720;2023-04-06T14:48:35;5.97;;;4.83;;
7647;SDS011;3866;48.020;11.720;2023-04-06T14:51:02;5.60;;;5.03;;
7647;SDS011;3866;48.020;11.720;2023-04-06T14:53:29;4.97;;;4.57;;
7647;SDS011;3866;48.020;11.720;2023-04-06T14:55:58;5.30;;;4.90;;
7647;SDS011;3866;48.020;11.720;2023-04-06T14:58:25;5.77;;;4.90;;
7647;SDS011;3866;48.020;11.720;2023-04-06T15:00:54;5.17;;;4.63;;